sensor_id;sensor_type;location;lat;lon;timestamp;P1;durP1;ratioP1;P2;durP2;ratioP2
27632;SDS011;15046;50.930;13.334;2023-10-31T00:00:09;23.85;;;15.77;;
27632;SDS011;15046;50.930;13.334;2023-10-31T00:02:37;22.13;;;15.68;;
27632;SDS011;15046;50.930;13.334;2023-10-31T00:05:03;22.67;;;16.42;;
27632;SDS011;15046;50.930;13.334;2023-10-31T00:07:29;24.67;;;17.50;;
27632;SDS011;15046;50.930;13.334;2023-10-31T00:09:55;23.92;;;18.65;;
27632;SDS011;15046;50.930;13.334;2023-10-31T00:12:20;24.05;;;18.30;;
27632;SDS011;15046;50.930;13.334;2023-10-31T00:14:46;27.98;;;19.35;;
27632;SDS011;15046;50.930;13.334;2023-10-31T00:17:12;25.52;;;19.55;;
27632;SDS011;15046;50.930;13.334;2023-10-31T00:19:38;30.17;;;21.27;;
27632;SDS011;15046;50.930;13.334;2023-10-31T00:22:03;26.40;;;20.35;;
27632;SDS011;15046;50.930;13.334;2023-10-31T00:24:30;28.25;;;21.30;;
27632;SDS011;15046;50.930;13.334;2023-10-31T00:26:57;28.85;;;22.17;;
27632;SDS011;15046;50.930;13.334;2023-10-31T00:29:23;30.17;;;22.42;;
27632;SDS011;15046;50.930;13.334;2023-10-31T00:31:49;28.70;;;21.55;;
27632;SDS011;15046;50.930;13.334;2023-10-31T00:34:15;30.42;;;23.33;;
27632;SDS011;15046;50.930;13.334;2023-10-31T00:36:40;28.13;;;22.17;;
27632;SDS011;15046;50.930;13.334;2023-10-31T00:39:06;31.70;;;22.88;;
27632;SDS011;15046;50.930;13.334;2023-10-31T00:41:32;32.42;;;24.25;;
27632;SDS011;15046;50.930;13.334;2023-10-31T00:43:58;29.58;;;23.80;;
27632;SDS011;15046;50.930;13.334;2023-10-31T00:46:24;33.75;;;25.25;;
27632;SDS011;15046;50.930;13.334;2023-10-31T00:48:49;36.05;;;27.65;;
27632;SDS011;15046;50.930;13.334;2023-10-31T00:51:15;36.22;;;27.08;;
27632;SDS011;15046;50.930;13.334;2023-10-31T00:53:41;39.03;;;29.08;;
27632;SDS011;15046;50.930;13.334;2023-10-31T00:56:07;38.72;;;27.60;;
27632;SDS011;15046;50.930;13.334;2023-10-31T00:58:33;38.25;;;29.90;;
27632;SDS011;15046;50.930;13.334;2023-10-31T01:00:58;41.22;;;30.48;;
27632;SDS011;15046;50.930;13.334;2023-10-31T01:03:24;43.83;;;30.55;;
27632;SDS011;15046;50.930;13.334;2023-10-31T01:05:50;38.83;;;30.05;;
27632;SDS011;15046;50.930;13.334;2023-10-31T01:08:16;40.80;;;28.40;;
27632;SDS011;15046;50.930;13.334;2023-10-31T01:10:42;48.65;;;31.25;;
27632;SDS011;15046;50.930;13.334;2023-10-31T01:13:07;40.85;;;29.88;;
27632;SDS011;15046;50.930;13.334;2023-10-31T01:15:33;52.92;;;34.88;;
27632;SDS011;15046;50.930;13.334;2023-10-31T01:17:59;49.88;;;33.50;;
27632;SDS011;15046;50.930;13.334;2023-10-31T01:20:25;58.97;;;36.92;;
27632;SDS011;15046;50.930;13.334;2023-10-31T01:22:50;47.33;;;32.67;;
27632;SDS011;15046;50.930;13.334;2023-10-31T01:25:16;58.33;;;36.42;;
27632;SDS011;15046;50.930;13.334;2023-10-31T01:27:42;57.90;;;37.67;;
27632;SDS011;15046;50.930;13.334;2023-10-31T01:30:08;51.42;;;35.13;;
27632;SDS011;15046;50.930;13.334;2023-10-31T01:32:35;59.92;;;38.53;;
27632;SDS011;15046;50.930;13.334;2023-10-31T01:35:00;65.97;;;40.17;;
27632;SDS011;15046;50.930;13.334;2023-10-31T01:37:26;70.25;;;42.15;;
27632;SDS011;15046;50.930;13.334;2023-10-31T01:39:52;70.55;;;40.40;;
27632;SDS011;15046;50.930;13.334;2023-10-31T01:42:18;69.53;;;41.45;;
27632;SDS011;15046;50.930;13.334;2023-10-31T01:44:44;71.32;;;43.95;;
27632;SDS011;15046;50.930;13.334;2023-10-31T01:47:09;71.18;;;42.97;;
27632;SDS011;15046;50.930;13.334;2023-10-31T01:49:38;73.38;;;42.53;;
27632;SDS011;15046;50.930;13.334;2023-10-31T01:54:34;74.07;;;42.83;;
27632;SDS011;15046;50.930;13.334;2023-10-31T01:57:01;80.70;;;44.30;;
27632;SDS011;15046;50.930;13.334;2023-10-31T01:59:29;76.75;;;41.10;;
27632;SDS011;15046;50.930;13.334;2023-10-31T02:01:55;85.70;;;45.05;;
27632;SDS011;15046;50.930;13.334;2023-10-31T02:04:23;74.47;;;42.25;;
27632;SDS011;15046;50.930;13.334;2023-10-31T02:06:49;82.88;;;45.30;;
27632;SDS011;15046;50.930;13.334;2023-10-31T02:09:15;75.88;;;41.72;;
27632;SDS011;15046;50.930;13.334;2023-10-31T02:11:41;110.88;;;47.10;;
27632;SDS011;15046;50.930;13.334;2023-10-31T02:14:07;90.72;;;43.85;;
27632;SDS011;15046;50.930;13.334;2023-10-31T02:16:32;78.30;;;40.95;;
27632;SDS011;15046;50.930;13.334;2023-10-31T02:18:58;82.90;;;41.40;;
27632;SDS011;15046;50.930;13.334;2023-10-31T02:21:24;85.35;;;41.97;;
27632;SDS011;15046;50.930;13.334;2023-10-31T02:23:59;69.25;;;37.30;;
27632;SDS011;15046;50.930;13.334;2023-10-31T02:26:29;89.85;;;40.70;;
27632;SDS011;15046;50.930;13.334;2023-10-31T02:31:21;47.13;;;28.02;;
27632;SDS011;15046;50.930;13.334;2023-10-31T02:33:47;52.03;;;30.17;;
27632;SDS011;15046;50.930;13.334;2023-10-31T02:36:13;61.47;;;30.95;;
27632;SDS011;15046;50.930;13.334;2023-10-31T02:38:39;45.22;;;26.13;;
27632;SDS011;15046;50.930;13.334;2023-10-31T02:41:04;50.13;;;27.20;;
27632;SDS011;15046;50.930;13.334;2023-10-31T02:43:30;45.00;;;25.13;;
27632;SDS011;15046;50.930;13.334;2023-10-31T02:45:56;36.13;;;23.10;;
27632;SDS011;15046;50.930;13.334;2023-10-31T02:48:23;37.15;;;22.52;;
27632;SDS011;15046;50.930;13.334;2023-10-31T02:50:50;36.63;;;22.25;;
27632;SDS011;15046;50.930;13.334;2023-10-31T02:53:17;37.25;;;22.08;;
27632;SDS011;15046;50.930;13.334;2023-10-31T02:55:43;35.22;;;21.67;;
27632;SDS011;15046;50.930;13.334;2023-10-31T02:58:09;35.30;;;21.75;;
27632;SDS011;15046;50.930;13.334;2023-10-31T03:00:36;36.03;;;22.00;;
27632;SDS011;15046;50.930;13.334;2023-10-31T03:03:02;31.85;;;20.35;;
27632;SDS011;15046;50.930;13.334;2023-10-31T03:05:27;28.95;;;19.35;;
27632;SDS011;15046;50.930;13.334;2023-10-31T03:07:53;26.63;;;19.20;;
27632;SDS011;15046;50.930;13.334;2023-10-31T03:10:20;29.73;;;19.75;;
27632;SDS011;15046;50.930;13.334;2023-10-31T03:12:46;30.92;;;20.40;;
27632;SDS011;15046;50.930;13.334;2023-10-31T03:15:12;34.22;;;20.08;;
27632;SDS011;15046;50.930;13.334;2023-10-31T03:17:38;25.02;;;18.48;;
27632;SDS011;15046;50.930;13.334;2023-10-31T03:20:04;27.25;;;18.63;;
27632;SDS011;15046;50.930;13.334;2023-10-31T03:22:30;34.05;;;22.23;;
27632;SDS011;15046;50.930;13.334;2023-10-31T03:24:56;32.38;;;19.95;;
27632;SDS011;15046;50.930;13.334;2023-10-31T03:27:22;32.67;;;20.13;;
27632;SDS011;15046;50.930;13.334;2023-10-31T03:29:48;20.52;;;16.52;;
27632;SDS011;15046;50.930;13.334;2023-10-31T03:32:14;22.45;;;16.45;;
27632;SDS011;15046;50.930;13.334;2023-10-31T03:34:40;19.00;;;14.82;;
27632;SDS011;15046;50.930;13.334;2023-10-31T03:37:05;23.90;;;15.95;;
27632;SDS011;15046;50.930;13.334;2023-10-31T03:39:31;19.42;;;14.23;;
27632;SDS011;15046;50.930;13.334;2023-10-31T03:41:57;18.42;;;13.43;;
27632;SDS011;15046;50.930;13.334;2023-10-31T03:44:23;18.75;;;12.80;;
27632;SDS011;15046;50.930;13.334;2023-10-31T03:46:49;17.00;;;10.80;;
27632;SDS011;15046;50.930;13.334;2023-10-31T03:49:14;14.05;;;9.45;;
27632;SDS011;15046;50.930;13.334;2023-10-31T03:51:40;13.90;;;9.20;;
27632;SDS011;15046;50.930;13.334;2023-10-31T03:54:06;14.70;;;8.55;;
27632;SDS011;15046;50.930;13.334;2023-10-31T03:56:39;12.35;;;8.82;;
27632;SDS011;15046;50.930;13.334;2023-10-31T03:59:05;12.98;;;8.18;;
27632;SDS011;15046;50.930;13.334;2023-10-31T04:01:31;11.75;;;7.10;;
27632;SDS011;15046;50.930;13.334;2023-10-31T04:03:57;10.50;;;6.95;;
27632;SDS011;15046;50.930;13.334;2023-10-31T04:06:22;10.75;;;8.52;;
27632;SDS011;15046;50.930;13.334;2023-10-31T04:08:48;16.55;;;9.65;;
27632;SDS011;15046;50.930;13.334;2023-10-31T04:11:14;9.68;;;7.10;;
27632;SDS011;15046;50.930;13.334;2023-10-31T04:13:40;10.95;;;6.25;;
27632;SDS011;15046;50.930;13.334;2023-10-31T04:16:06;9.80;;;7.35;;
27632;SDS011;15046;50.930;13.334;2023-10-31T04:18:32;13.40;;;7.57;;
27632;SDS011;15046;50.930;13.334;2023-10-31T04:20:58;10.35;;;7.45;;
27632;SDS011;15046;50.930;13.334;2023-10-31T04:23:23;10.63;;;7.07;;
27632;SDS011;15046;50.930;13.334;2023-10-31T04:25:49;12.50;;;7.60;;
27632;SDS011;15046;50.930;13.334;2023-10-31T04:28:17;10.20;;;7.18;;
27632;SDS011;15046;50.930;13.334;2023-10-31T04:30:43;12.00;;;6.88;;
27632;SDS011;15046;50.930;13.334;2023-10-31T04:33:09;10.00;;;5.90;;
27632;SDS011;15046;50.930;13.334;2023-10-31T04:35:35;7.95;;;5.30;;
27632;SDS011;15046;50.930;13.334;2023-10-31T04:38:00;9.20;;;6.00;;
27632;SDS011;15046;50.930;13.334;2023-10-31T04:40:26;7.28;;;4.88;;
27632;SDS011;15046;50.930;13.334;2023-10-31T04:42:52;7.05;;;4.97;;
27632;SDS011;15046;50.930;13.334;2023-10-31T04:45:19;8.23;;;5.03;;
27632;SDS011;15046;50.930;13.334;2023-10-31T04:47:45;5.80;;;4.03;;
27632;SDS011;15046;50.930;13.334;2023-10-31T04:50:10;7.75;;;4.47;;
27632;SDS011;15046;50.930;13.334;2023-10-31T04:52:36;6.85;;;4.10;;
27632;SDS011;15046;50.930;13.334;2023-10-31T04:55:02;5.22;;;3.70;;
27632;SDS011;15046;50.930;13.334;2023-10-31T04:57:28;5.40;;;3.35;;
27632;SDS011;15046;50.930;13.334;2023-10-31T04:59:53;6.40;;;3.50;;
27632;SDS011;15046;50.930;13.334;2023-10-31T05:02:22;5.00;;;2.70;;
27632;SDS011;15046;50.930;13.334;2023-10-31T05:04:48;4.05;;;2.40;;
27632;SDS011;15046;50.930;13.334;2023-10-31T05:07:16;5.55;;;2.67;;
27632;SDS011;15046;50.930;13.334;2023-10-31T05:09:42;4.57;;;2.50;;
27632;SDS011;15046;50.930;13.334;2023-10-31T05:12:08;5.35;;;2.83;;
27632;SDS011;15046;50.930;13.334;2023-10-31T05:14:34;4.97;;;2.92;;
27632;SDS011;15046;50.930;13.334;2023-10-31T05:17:00;4.50;;;2.53;;
27632;SDS011;15046;50.930;13.334;2023-10-31T05:19:26;4.35;;;2.30;;
27632;SDS011;15046;50.930;13.334;2023-10-31T05:21:52;7.30;;;2.83;;
27632;SDS011;15046;50.930;13.334;2023-10-31T05:24:18;4.43;;;2.65;;
27632;SDS011;15046;50.930;13.334;2023-10-31T05:26:43;4.68;;;2.45;;
27632;SDS011;15046;50.930;13.334;2023-10-31T05:29:10;4.18;;;2.53;;
27632;SDS011;15046;50.930;13.334;2023-10-31T05:31:36;3.80;;;2.10;;
27632;SDS011;15046;50.930;13.334;2023-10-31T05:34:02;4.00;;;2.22;;
27632;SDS011;15046;50.930;13.334;2023-10-31T05:36:31;4.20;;;1.80;;
27632;SDS011;15046;50.930;13.334;2023-10-31T05:38:57;2.85;;;1.80;;
27632;SDS011;15046;50.930;13.334;2023-10-31T05:41:23;3.33;;;1.83;;
27632;SDS011;15046;50.930;13.334;2023-10-31T05:43:49;3.28;;;1.85;;
27632;SDS011;15046;50.930;13.334;2023-10-31T05:46:15;3.28;;;1.67;;
27632;SDS011;15046;50.930;13.334;2023-10-31T05:48:41;2.97;;;1.40;;
27632;SDS011;15046;50.930;13.334;2023-10-31T05:51:12;2.58;;;1.50;;
27632;SDS011;15046;50.930;13.334;2023-10-31T05:53:42;3.50;;;1.63;;
27632;SDS011;15046;50.930;13.334;2023-10-31T05:56:11;2.72;;;1.60;;
27632;SDS011;15046;50.930;13.334;2023-10-31T05:58:39;2.90;;;1.58;;
27632;SDS011;15046;50.930;13.334;2023-10-31T06:01:05;4.40;;;1.50;;
27632;SDS011;15046;50.930;13.334;2023-10-31T06:03:32;1.90;;;1.30;;
27632;SDS011;15046;50.930;13.334;2023-10-31T06:05:57;2.20;;;1.50;;
27632;SDS011;15046;50.930;13.334;2023-10-31T06:08:23;2.78;;;1.70;;
27632;SDS011;15046;50.930;13.334;2023-10-31T06:10:52;4.15;;;1.70;;
27632;SDS011;15046;50.930;13.334;2023-10-31T06:13:18;3.60;;;1.52;;
27632;SDS011;15046;50.930;13.334;2023-10-31T06:15:44;2.42;;;1.35;;
27632;SDS011;15046;50.930;13.334;2023-10-31T06:18:10;1.60;;;1.02;;
27632;SDS011;15046;50.930;13.334;2023-10-31T06:20:36;3.30;;;1.50;;
27632;SDS011;15046;50.930;13.334;2023-10-31T06:23:02;1.92;;;1.02;;
27632;SDS011;15046;50.930;13.334;2023-10-31T06:25:28;1.55;;;0.95;;
27632;SDS011;15046;50.930;13.334;2023-10-31T06:27:54;2.65;;;1.20;;
27632;SDS011;15046;50.930;13.334;2023-10-31T06:30:20;1.50;;;0.90;;
27632;SDS011;15046;50.930;13.334;2023-10-31T06:32:46;3.15;;;1.10;;
27632;SDS011;15046;50.930;13.334;2023-10-31T06:35:12;2.05;;;1.00;;
27632;SDS011;15046;50.930;13.334;2023-10-31T06:37:38;1.88;;;1.00;;
27632;SDS011;15046;50.930;13.334;2023-10-31T06:40:04;1.95;;;0.95;;
27632;SDS011;15046;50.930;13.334;2023-10-31T06:42:30;2.13;;;1.20;;
27632;SDS011;15046;50.930;13.334;2023-10-31T06:44:56;1.73;;;1.00;;
27632;SDS011;15046;50.930;13.334;2023-10-31T06:47:22;2.03;;;0.77;;
27632;SDS011;15046;50.930;13.334;2023-10-31T06:49:47;4.55;;;1.23;;
27632;SDS011;15046;50.930;13.334;2023-10-31T06:52:13;1.95;;;0.98;;
27632;SDS011;15046;50.930;13.334;2023-10-31T06:54:39;1.88;;;0.73;;
27632;SDS011;15046;50.930;13.334;2023-10-31T06:57:05;1.25;;;0.70;;
27632;SDS011;15046;50.930;13.334;2023-10-31T06:59:30;1.92;;;1.02;;
27632;SDS011;15046;50.930;13.334;2023-10-31T07:01:56;1.20;;;0.85;;
27632;SDS011;15046;50.930;13.334;2023-10-31T07:04:22;1.30;;;0.60;;
27632;SDS011;15046;50.930;13.334;2023-10-31T07:06:48;1.88;;;0.70;;
27632;SDS011;15046;50.930;13.334;2023-10-31T07:09:13;1.75;;;0.80;;
27632;SDS011;15046;50.930;13.334;2023-10-31T07:11:39;1.90;;;0.68;;
27632;SDS011;15046;50.930;13.334;2023-10-31T07:14:05;1.13;;;0.55;;
27632;SDS011;15046;50.930;13.334;2023-10-31T07:16:31;1.30;;;0.60;;
27632;SDS011;15046;50.930;13.334;2023-10-31T07:18:57;2.30;;;0.98;;
27632;SDS011;15046;50.930;13.334;2023-10-31T07:21:23;1.13;;;0.70;;
27632;SDS011;15046;50.930;13.334;2023-10-31T07:23:49;3.00;;;0.75;;
27632;SDS011;15046;50.930;13.334;2023-10-31T07:26:15;2.55;;;1.05;;
27632;SDS011;15046;50.930;13.334;2023-10-31T07:28:41;1.83;;;0.85;;
27632;SDS011;15046;50.930;13.334;2023-10-31T07:31:06;4.80;;;0.88;;
27632;SDS011;15046;50.930;13.334;2023-10-31T07:33:32;0.93;;;0.60;;
27632;SDS011;15046;50.930;13.334;2023-10-31T07:35:58;3.03;;;0.50;;
27632;SDS011;15046;50.930;13.334;2023-10-31T07:38:24;1.52;;;0.60;;
27632;SDS011;15046;50.930;13.334;2023-10-31T07:40:49;2.25;;;0.80;;
27632;SDS011;15046;50.930;13.334;2023-10-31T07:43:15;1.75;;;0.63;;
27632;SDS011;15046;50.930;13.334;2023-10-31T07:45:41;2.90;;;0.80;;
27632;SDS011;15046;50.930;13.334;2023-10-31T07:48:07;0.95;;;0.55;;
27632;SDS011;15046;50.930;13.334;2023-10-31T07:50:34;1.35;;;0.60;;
27632;SDS011;15046;50.930;13.334;2023-10-31T07:52:59;1.67;;;0.73;;
27632;SDS011;15046;50.930;13.334;2023-10-31T07:55:25;2.88;;;0.60;;
27632;SDS011;15046;50.930;13.334;2023-10-31T07:57:51;2.60;;;0.70;;
27632;SDS011;15046;50.930;13.334;2023-10-31T08:00:17;1.27;;;0.90;;
27632;SDS011;15046;50.930;13.334;2023-10-31T08:02:43;1.23;;;0.52;;
27632;SDS011;15046;50.930;13.334;2023-10-31T08:05:09;2.28;;;0.80;;
27632;SDS011;15046;50.930;13.334;2023-10-31T08:07:36;4.15;;;0.90;;
27632;SDS011;15046;50.930;13.334;2023-10-31T08:10:02;1.70;;;0.70;;
27632;SDS011;15046;50.930;13.334;2023-10-31T08:12:29;1.40;;;0.50;;
27632;SDS011;15046;50.930;13.334;2023-10-31T08:14:55;1.08;;;0.80;;
27632;SDS011;15046;50.930;13.334;2023-10-31T08:17:20;0.95;;;0.75;;
27632;SDS011;15046;50.930;13.334;2023-10-31T08:19:46;1.27;;;0.50;;
27632;SDS011;15046;50.930;13.334;2023-10-31T08:22:15;0.52;;;0.40;;
27632;SDS011;15046;50.930;13.334;2023-10-31T08:24:41;1.85;;;0.90;;
27632;SDS011;15046;50.930;13.334;2023-10-31T08:27:07;0.43;;;0.40;;
27632;SDS011;15046;50.930;13.334;2023-10-31T08:29:33;3.10;;;0.85;;
27632;SDS011;15046;50.930;13.334;2023-10-31T08:31:59;2.22;;;0.80;;
27632;SDS011;15046;50.930;13.334;2023-10-31T08:34:24;0.88;;;0.60;;
27632;SDS011;15046;50.930;13.334;2023-10-31T08:36:50;1.25;;;0.45;;
27632;SDS011;15046;50.930;13.334;2023-10-31T08:39:17;4.22;;;0.52;;
27632;SDS011;15046;50.930;13.334;2023-10-31T08:41:53;1.00;;;0.52;;
27632;SDS011;15046;50.930;13.334;2023-10-31T08:44:20;1.05;;;0.70;;
27632;SDS011;15046;50.930;13.334;2023-10-31T08:46:46;1.38;;;0.60;;
27632;SDS011;15046;50.930;13.334;2023-10-31T08:49:12;2.22;;;0.65;;
27632;SDS011;15046;50.930;13.334;2023-10-31T08:51:38;1.35;;;0.68;;
27632;SDS011;15046;50.930;13.334;2023-10-31T08:54:04;0.98;;;0.50;;
27632;SDS011;15046;50.930;13.334;2023-10-31T08:56:30;1.25;;;0.70;;
27632;SDS011;15046;50.930;13.334;2023-10-31T08:58:56;1.63;;;0.73;;
27632;SDS011;15046;50.930;13.334;2023-10-31T09:01:21;0.80;;;0.60;;
27632;SDS011;15046;50.930;13.334;2023-10-31T09:03:47;1.30;;;0.70;;
27632;SDS011;15046;50.930;13.334;2023-10-31T09:06:13;0.90;;;0.50;;
27632;SDS011;15046;50.930;13.334;2023-10-31T09:08:39;1.92;;;0.75;;
27632;SDS011;15046;50.930;13.334;2023-10-31T09:11:05;0.90;;;0.50;;
27632;SDS011;15046;50.930;13.334;2023-10-31T09:13:31;0.82;;;0.57;;
27632;SDS011;15046;50.930;13.334;2023-10-31T09:15:58;1.52;;;0.52;;
27632;SDS011;15046;50.930;13.334;2023-10-31T09:18:24;2.92;;;0.70;;
27632;SDS011;15046;50.930;13.334;2023-10-31T09:20:50;1.17;;;0.57;;
27632;SDS011;15046;50.930;13.334;2023-10-31T09:23:16;2.33;;;0.70;;
27632;SDS011;15046;50.930;13.334;2023-10-31T09:25:42;2.25;;;0.88;;
27632;SDS011;15046;50.930;13.334;2023-10-31T09:28:08;2.88;;;0.70;;
27632;SDS011;15046;50.930;13.334;2023-10-31T09:30:34;2.75;;;1.05;;
27632;SDS011;15046;50.930;13.334;2023-10-31T09:33:00;2.65;;;1.45;;
27632;SDS011;15046;50.930;13.334;2023-10-31T09:35:26;5.32;;;1.98;;
27632;SDS011;15046;50.930;13.334;2023-10-31T09:37:52;1.08;;;0.47;;
27632;SDS011;15046;50.930;13.334;2023-10-31T09:40:24;1.38;;;0.47;;
27632;SDS011;15046;50.930;13.334;2023-10-31T09:42:53;0.82;;;0.43;;
27632;SDS011;15046;50.930;13.334;2023-10-31T09:48:24;2.22;;;0.45;;
27632;SDS011;15046;50.930;13.334;2023-10-31T09:53:54;1.08;;;0.50;;
27632;SDS011;15046;50.930;13.334;2023-10-31T09:56:53;4.97;;;1.90;;
27632;SDS011;15046;50.930;13.334;2023-10-31T09:59:58;6.22;;;4.78;;
27632;SDS011;15046;50.930;13.334;2023-10-31T10:03:03;2.70;;;0.85;;
27632;SDS011;15046;50.930;13.334;2023-10-31T10:05:49;8.98;;;6.70;;
27632;SDS011;15046;50.930;13.334;2023-10-31T10:08:41;6.68;;;3.45;;
27632;SDS011;15046;50.930;13.334;2023-10-31T10:14:30;4.25;;;1.10;;
27632;SDS011;15046;50.930;13.334;2023-10-31T10:17:50;2.72;;;1.23;;
27632;SDS011;15046;50.930;13.334;2023-10-31T10:20:56;2.65;;;0.90;;
27632;SDS011;15046;50.930;13.334;2023-10-31T10:23:25;0.93;;;0.60;;
27632;SDS011;15046;50.930;13.334;2023-10-31T10:26:06;2.28;;;0.70;;
27632;SDS011;15046;50.930;13.334;2023-10-31T10:29:11;1.00;;;0.63;;
27632;SDS011;15046;50.930;13.334;2023-10-31T10:31:39;0.52;;;0.40;;
27632;SDS011;15046;50.930;13.334;2023-10-31T10:36:57;2.67;;;0.70;;
27632;SDS011;15046;50.930;13.334;2023-10-31T10:40:07;1.45;;;0.70;;
27632;SDS011;15046;50.930;13.334;2023-10-31T10:42:57;0.98;;;0.50;;
27632;SDS011;15046;50.930;13.334;2023-10-31T10:45:28;0.57;;;0.40;;
27632;SDS011;15046;50.930;13.334;2023-10-31T10:48:16;0.50;;;0.38;;
27632;SDS011;15046;50.930;13.334;2023-10-31T10:54:18;1.15;;;0.80;;
27632;SDS011;15046;50.930;13.334;2023-10-31T10:57:14;1.25;;;0.80;;
27632;SDS011;15046;50.930;13.334;2023-10-31T11:00:25;1.15;;;0.60;;
27632;SDS011;15046;50.930;13.334;2023-10-31T11:12:49;6.75;;;2.15;;
27632;SDS011;15046;50.930;13.334;2023-10-31T11:15:40;10.38;;;6.20;;
27632;SDS011;15046;50.930;13.334;2023-10-31T11:21:27;7.97;;;2.15;;
27632;SDS011;15046;50.930;13.334;2023-10-31T11:27:44;1.38;;;0.80;;
27632;SDS011;15046;50.930;13.334;2023-10-31T11:30:26;1.33;;;0.73;;
27632;SDS011;15046;50.930;13.334;2023-10-31T11:33:11;22.08;;;2.45;;
27632;SDS011;15046;50.930;13.334;2023-10-31T11:35:50;6.10;;;1.02;;
27632;SDS011;15046;50.930;13.334;2023-10-31T11:42:57;3.00;;;1.05;;
27632;SDS011;15046;50.930;13.334;2023-10-31T11:46:25;0.95;;;0.50;;
27632;SDS011;15046;50.930;13.334;2023-10-31T11:49:47;1.73;;;0.80;;
27632;SDS011;15046;50.930;13.334;2023-10-31T11:56:24;2.10;;;0.90;;
27632;SDS011;15046;50.930;13.334;2023-10-31T11:59:06;2.40;;;1.17;;
27632;SDS011;15046;50.930;13.334;2023-10-31T12:01:44;1.85;;;0.98;;
27632;SDS011;15046;50.930;13.334;2023-10-31T12:08:25;2.35;;;1.05;;
27632;SDS011;15046;50.930;13.334;2023-10-31T12:11:21;1.67;;;0.70;;
27632;SDS011;15046;50.930;13.334;2023-10-31T12:14:18;1.67;;;0.80;;
27632;SDS011;15046;50.930;13.334;2023-10-31T12:17:06;8.52;;;1.00;;
27632;SDS011;15046;50.930;13.334;2023-10-31T12:19:54;0.95;;;0.68;;
27632;SDS011;15046;50.930;13.334;2023-10-31T12:26:08;2.22;;;0.70;;
27632;SDS011;15046;50.930;13.334;2023-10-31T12:29:06;1.10;;;0.50;;
27632;SDS011;15046;50.930;13.334;2023-10-31T12:38:36;1.10;;;0.50;;
27632;SDS011;15046;50.930;13.334;2023-10-31T12:41:24;0.85;;;0.50;;
27632;SDS011;15046;50.930;13.334;2023-10-31T12:44:17;1.67;;;0.52;;
27632;SDS011;15046;50.930;13.334;2023-10-31T12:47:29;2.05;;;0.73;;
27632;SDS011;15046;50.930;13.334;2023-10-31T12:50:12;1.25;;;0.50;;
27632;SDS011;15046;50.930;13.334;2023-10-31T12:56:04;1.48;;;0.55;;
27632;SDS011;15046;50.930;13.334;2023-10-31T13:02:31;2.97;;;0.50;;
27632;SDS011;15046;50.930;13.334;2023-10-31T13:10:59;1.17;;;0.80;;
27632;SDS011;15046;50.930;13.334;2023-10-31T13:14:08;2.05;;;0.80;;
27632;SDS011;15046;50.930;13.334;2023-10-31T13:16:40;1.75;;;0.70;;
27632;SDS011;15046;50.930;13.334;2023-10-31T13:19:15;1.13;;;0.60;;
27632;SDS011;15046;50.930;13.334;2023-10-31T13:22:01;1.88;;;0.90;;
27632;SDS011;15046;50.930;13.334;2023-10-31T13:24:29;1.48;;;0.88;;
27632;SDS011;15046;50.930;13.334;2023-10-31T13:27:02;3.75;;;1.35;;
27632;SDS011;15046;50.930;13.334;2023-10-31T13:29:54;1.63;;;0.75;;
27632;SDS011;15046;50.930;13.334;2023-10-31T13:32:44;1.20;;;0.90;;
27632;SDS011;15046;50.930;13.334;2023-10-31T13:35:10;2.58;;;0.85;;
27632;SDS011;15046;50.930;13.334;2023-10-31T13:38:18;2.03;;;0.70;;
27632;SDS011;15046;50.930;13.334;2023-10-31T13:40:44;1.27;;;0.70;;
27632;SDS011;15046;50.930;13.334;2023-10-31T13:43:11;2.80;;;0.85;;
27632;SDS011;15046;50.930;13.334;2023-10-31T13:48:45;5.13;;;0.90;;
27632;SDS011;15046;50.930;13.334;2023-10-31T13:51:11;2.22;;;0.75;;
27632;SDS011;15046;50.930;13.334;2023-10-31T13:53:37;2.25;;;1.00;;
27632;SDS011;15046;50.930;13.334;2023-10-31T13:56:03;1.27;;;0.73;;
27632;SDS011;15046;50.930;13.334;2023-10-31T13:58:29;3.10;;;0.75;;
27632;SDS011;15046;50.930;13.334;2023-10-31T14:00:55;2.38;;;1.20;;
27632;SDS011;15046;50.930;13.334;2023-10-31T14:03:20;2.75;;;1.00;;
27632;SDS011;15046;50.930;13.334;2023-10-31T14:05:47;2.80;;;1.02;;
27632;SDS011;15046;50.930;13.334;2023-10-31T14:08:12;2.97;;;1.30;;
27632;SDS011;15046;50.930;13.334;2023-10-31T14:10:38;2.45;;;0.95;;
27632;SDS011;15046;50.930;13.334;2023-10-31T14:13:05;2.40;;;0.98;;
27632;SDS011;15046;50.930;13.334;2023-10-31T14:15:31;2.78;;;0.80;;
27632;SDS011;15046;50.930;13.334;2023-10-31T14:17:58;2.95;;;1.10;;
27632;SDS011;15046;50.930;13.334;2023-10-31T14:20:23;1.17;;;0.70;;
27632;SDS011;15046;50.930;13.334;2023-10-31T14:22:50;2.05;;;0.98;;
27632;SDS011;15046;50.930;13.334;2023-10-31T14:25:16;1.58;;;0.90;;
27632;SDS011;15046;50.930;13.334;2023-10-31T14:27:42;1.20;;;0.65;;
27632;SDS011;15046;50.930;13.334;2023-10-31T14:30:09;1.73;;;0.73;;
27632;SDS011;15046;50.930;13.334;2023-10-31T14:32:36;1.55;;;0.80;;
27632;SDS011;15046;50.930;13.334;2023-10-31T14:35:01;1.50;;;0.90;;
27632;SDS011;15046;50.930;13.334;2023-10-31T14:37:28;2.53;;;0.90;;
27632;SDS011;15046;50.930;13.334;2023-10-31T14:39:54;2.50;;;0.80;;
27632;SDS011;15046;50.930;13.334;2023-10-31T14:42:20;3.25;;;0.90;;
27632;SDS011;15046;50.930;13.334;2023-10-31T14:44:46;2.28;;;0.75;;
27632;SDS011;15046;50.930;13.334;2023-10-31T14:47:12;1.90;;;1.10;;
27632;SDS011;15046;50.930;13.334;2023-10-31T14:49:38;3.50;;;1.30;;
27632;SDS011;15046;50.930;13.334;2023-10-31T14:52:04;2.08;;;1.15;;
27632;SDS011;15046;50.930;13.334;2023-10-31T14:54:33;1.83;;;0.88;;
27632;SDS011;15046;50.930;13.334;2023-10-31T14:57:00;3.53;;;0.90;;
27632;SDS011;15046;50.930;13.334;2023-10-31T14:59:28;2.67;;;1.00;;
27632;SDS011;15046;50.930;13.334;2023-10-31T15:01:53;2.92;;;0.80;;
27632;SDS011;15046;50.930;13.334;2023-10-31T15:04:19;1.92;;;1.00;;
27632;SDS011;15046;50.930;13.334;2023-10-31T15:06:47;2.75;;;1.10;;
27632;SDS011;15046;50.930;13.334;2023-10-31T15:09:14;1.15;;;0.70;;
27632;SDS011;15046;50.930;13.334;2023-10-31T15:12:25;1.80;;;0.90;;
27632;SDS011;15046;50.930;13.334;2023-10-31T15:15:01;3.15;;;0.98;;
27632;SDS011;15046;50.930;13.334;2023-10-31T15:17:46;1.65;;;0.90;;
27632;SDS011;15046;50.930;13.334;2023-10-31T15:20:21;1.85;;;1.02;;
27632;SDS011;15046;50.930;13.334;2023-10-31T15:22:48;2.00;;;1.00;;
27632;SDS011;15046;50.930;13.334;2023-10-31T15:25:14;4.68;;;1.08;;
27632;SDS011;15046;50.930;13.334;2023-10-31T15:30:51;3.78;;;0.95;;
27632;SDS011;15046;50.930;13.334;2023-10-31T15:33:17;1.88;;;1.02;;
27632;SDS011;15046;50.930;13.334;2023-10-31T15:36:09;4.43;;;1.38;;
27632;SDS011;15046;50.930;13.334;2023-10-31T15:38:40;2.05;;;1.08;;
27632;SDS011;15046;50.930;13.334;2023-10-31T15:41:13;1.93;;;0.90;;
27632;SDS011;15046;50.930;13.334;2023-10-31T15:43:47;5.13;;;1.10;;
27632;SDS011;15046;50.930;13.334;2023-10-31T15:46:25;5.00;;;1.75;;
27632;SDS011;15046;50.930;13.334;2023-10-31T15:49:03;4.03;;;0.88;;
27632;SDS011;15046;50.930;13.334;2023-10-31T15:51:29;2.83;;;0.98;;
27632;SDS011;15046;50.930;13.334;2023-10-31T15:53:58;4.93;;;1.05;;
27632;SDS011;15046;50.930;13.334;2023-10-31T15:59:27;2.00;;;0.90;;
27632;SDS011;15046;50.930;13.334;2023-10-31T16:01:52;2.83;;;1.00;;
27632;SDS011;15046;50.930;13.334;2023-10-31T16:04:18;2.08;;;1.00;;